createdAt,value
2023-05-05T00:00:13.173Z,19.56
2023-05-05T00:02:17.848Z,19.71
2023-05-05T00:04:22.665Z,19.70
2023-05-05T00:06:27.894Z,19.70
2023-05-05T00:08:31.384Z,19.68
2023-05-05T00:10:34.709Z,19.70
2023-05-05T00:12:38.103Z,19.74
2023-05-05T00:14:42.337Z,19.77
2023-05-05T00:16:45.746Z,19.78
2023-05-05T00:18:50.424Z,19.73
2023-05-05T00:20:53.741Z,19.56
2023-05-05T00:22:57.331Z,19.41
2023-05-05T00:25:00.771Z,19.40
2023-05-05T00:27:04.298Z,19.44
2023-05-05T00:29:08.538Z,19.42
2023-05-05T00:31:11.891Z,19.45
2023-05-05T00:33:15.231Z,19.52
2023-05-05T00:35:20.020Z,19.66
2023-05-05T00:37:23.372Z,19.70
2023-05-05T00:39:26.649Z,19.72
2023-05-05T00:41:30.205Z,19.70
2023-05-05T00:43:33.485Z,19.67
2023-05-05T00:45:39.090Z,19.72
2023-05-05T00:47:44.301Z,19.78
2023-05-05T00:49:47.708Z,19.65
2023-05-05T00:51:52.400Z,19.52
2023-05-05T00:53:56.091Z,19.42
2023-05-05T00:56:00.194Z,19.34
2023-05-05T00:58:04.264Z,19.35
2023-05-05T01:00:10.828Z,19.42
2023-05-05T01:02:14.830Z,19.26
2023-05-05T01:04:18.445Z,19.22
2023-05-05T01:06:37.432Z,19.24
2023-05-05T01:08:52.478Z,19.31
2023-05-05T01:11:03.138Z,19.40
2023-05-05T01:13:22.381Z,19.44
2023-05-05T01:15:34.294Z,19.47
2023-05-05T01:17:43.483Z,19.48
2023-05-05T01:20:00.040Z,19.09
2023-05-05T01:22:08.092Z,19.47
2023-05-05T01:24:44.891Z,19.47
2023-05-05T01:27:11.068Z,19.47
2023-05-05T01:29:32.532Z,19.01
2023-05-05T01:31:53.044Z,19.23
2023-05-05T01:34:01.642Z,19.25
2023-05-05T01:36:11.519Z,19.12
2023-05-05T01:38:18.099Z,19.27
2023-05-05T01:40:26.717Z,19.19
2023-05-05T01:42:31.687Z,19.10
2023-05-05T01:44:37.450Z,18.77
2023-05-05T01:46:40.869Z,19.06
2023-05-05T01:48:47.482Z,18.91
2023-05-05T01:50:53.180Z,18.88
2023-05-05T01:52:58.231Z,18.82
2023-05-05T01:55:03.906Z,18.89
2023-05-05T01:57:09.527Z,18.86
2023-05-05T01:59:13.961Z,18.85
2023-05-05T02:01:19.830Z,18.82
2023-05-05T02:03:25.752Z,18.81
2023-05-05T02:05:31.706Z,18.81
2023-05-05T02:07:36.740Z,18.76
2023-05-05T02:09:41.752Z,18.71
2023-05-05T02:11:45.237Z,18.45
2023-05-05T02:13:50.733Z,18.33
2023-05-05T02:15:56.327Z,18.43
2023-05-05T02:18:01.483Z,18.43
2023-05-05T02:20:08.293Z,18.49
2023-05-05T02:22:15.422Z,18.49
2023-05-05T02:24:18.788Z,18.34
2023-05-05T02:26:24.683Z,18.46
2023-05-05T02:28:34.382Z,18.45
2023-05-05T02:30:39.792Z,18.40
2023-05-05T02:32:49.497Z,18.35
2023-05-05T02:34:55.369Z,18.26
2023-05-05T02:37:01.800Z,18.17
2023-05-05T02:39:15.308Z,18.14
2023-05-05T02:41:22.254Z,18.16
2023-05-05T02:43:28.782Z,18.14
2023-05-05T02:45:32.268Z,17.97
2023-05-05T02:47:37.708Z,17.80
2023-05-05T02:49:43.534Z,17.77
2023-05-05T02:51:47.038Z,17.87
2023-05-05T02:54:00.044Z,17.89
2023-05-05T02:56:17.340Z,17.84
2023-05-05T02:58:32.279Z,17.74
2023-05-05T03:00:44.957Z,17.93
2023-05-05T03:02:56.386Z,17.88
2023-05-05T03:05:05.341Z,17.83
2023-05-05T03:07:16.570Z,17.84
2023-05-05T03:09:30.958Z,17.87
2023-05-05T03:11:41.611Z,17.86
2023-05-05T03:13:48.866Z,17.78
2023-05-05T03:15:57.861Z,17.87
2023-05-05T03:18:04.255Z,17.83
2023-05-05T03:20:09.403Z,17.88
2023-05-05T03:22:17.124Z,17.85
2023-05-05T03:24:23.116Z,17.82
2023-05-05T03:26:35.249Z,17.79
2023-05-05T03:28:40.415Z,17.17
2023-05-05T03:30:51.891Z,17.79
2023-05-05T03:32:55.510Z,17.78
2023-05-05T03:34:59.012Z,17.77
2023-05-05T03:37:07.936Z,17.69
2023-05-05T03:39:11.785Z,17.76
2023-05-05T03:41:15.162Z,17.77
2023-05-05T03:43:19.576Z,17.75
2023-05-05T03:45:24.503Z,17.72
2023-05-05T03:47:29.963Z,17.72
2023-05-05T03:49:33.767Z,17.17
2023-05-05T03:51:37.331Z,17.70
2023-05-05T03:53:40.725Z,17.69
2023-05-05T03:55:45.285Z,17.62
2023-05-05T03:57:48.989Z,17.60
2023-05-05T03:59:52.274Z,17.60
2023-05-05T04:01:57.768Z,17.59
2023-05-05T04:04:01.216Z,17.62
2023-05-05T04:06:05.941Z,17.66
2023-05-05T04:08:10.152Z,17.66
2023-05-05T04:10:13.453Z,17.64
2023-05-05T04:12:16.855Z,17.63
2023-05-05T04:14:20.496Z,17.66
2023-05-05T04:16:31.093Z,17.65
2023-05-05T04:18:38.627Z,17.64
2023-05-05T04:20:44.153Z,17.62
2023-05-05T04:22:49.136Z,17.55
2023-05-05T04:24:54.471Z,17.45
2023-05-05T04:26:59.011Z,17.42
2023-05-05T04:29:03.435Z,17.14
2023-05-05T04:31:06.862Z,17.00
2023-05-05T04:33:13.587Z,17.07
2023-05-05T04:35:19.136Z,17.14
2023-05-05T04:37:22.706Z,17.20
2023-05-05T04:39:26.358Z,17.26
2023-05-05T04:41:30.161Z,17.31
2023-05-05T04:43:34.047Z,17.34
2023-05-05T04:45:37.450Z,17.42
2023-05-05T04:47:42.177Z,17.39
2023-05-05T04:49:45.886Z,17.41
2023-05-05T04:51:50.985Z,17.41
2023-05-05T04:53:54.440Z,17.48
2023-05-05T04:55:57.899Z,17.46
2023-05-05T04:58:01.268Z,17.45
2023-05-05T05:00:06.702Z,17.44
2023-05-05T05:02:10.200Z,17.07
2023-05-05T05:04:13.856Z,17.46
2023-05-05T05:06:17.135Z,17.50
2023-05-05T05:08:21.892Z,17.48
2023-05-05T05:10:25.331Z,17.51
2023-05-05T05:12:28.802Z,17.47
2023-05-05T05:14:37.731Z,17.46
2023-05-05T05:16:41.230Z,17.52
2023-05-05T05:18:44.573Z,17.34
2023-05-05T05:20:47.949Z,17.53
2023-05-05T05:22:52.102Z,17.53
2023-05-05T05:24:58.865Z,17.49
2023-05-05T05:27:02.785Z,17.51
2023-05-05T05:29:06.123Z,17.52
2023-05-05T05:31:09.741Z,17.55
2023-05-05T05:33:13.176Z,17.59
2023-05-05T05:35:17.972Z,17.68
2023-05-05T05:37:21.860Z,17.74
2023-05-05T05:39:25.366Z,17.77
2023-05-05T05:41:30.263Z,17.81
2023-05-05T05:43:34.316Z,17.93
2023-05-05T05:45:37.964Z,17.94
2023-05-05T05:47:43.862Z,18.02
2023-05-05T05:49:48.052Z,18.05
2023-05-05T05:51:51.730Z,18.09
2023-05-05T05:53:56.328Z,18.15
2023-05-05T05:56:01.317Z,18.06
2023-05-05T05:58:06.101Z,18.07
2023-05-05T06:00:10.929Z,18.18
2023-05-05T06:02:20.913Z,18.24
2023-05-05T06:04:24.744Z,18.24
2023-05-05T06:06:28.662Z,18.33
2023-05-05T06:08:32.197Z,18.30
2023-05-05T06:10:35.654Z,18.29
2023-05-05T06:12:43.777Z,18.33
2023-05-05T06:14:48.418Z,18.36
2023-05-05T06:16:52.720Z,18.13
2023-05-05T06:18:58.579Z,18.42
2023-05-05T06:21:02.089Z,18.51
2023-05-05T06:23:06.142Z,18.55
2023-05-05T06:25:12.731Z,18.57
2023-05-05T06:27:16.213Z,18.62
2023-05-05T06:29:19.559Z,18.61
2023-05-05T06:31:24.394Z,18.48
2023-05-05T06:33:27.871Z,18.38
2023-05-05T06:35:31.959Z,18.39
2023-05-05T06:37:35.356Z,18.37
2023-05-05T06:39:38.669Z,18.36
2023-05-05T06:41:42.048Z,18.49
2023-05-05T06:43:45.340Z,18.49
2023-05-05T06:45:50.294Z,18.34
2023-05-05T06:47:54.989Z,18.42
2023-05-05T06:49:58.423Z,18.45
2023-05-05T06:52:01.861Z,18.39
2023-05-05T06:54:05.647Z,18.66
2023-05-05T06:56:09.302Z,18.66
2023-05-05T06:58:13.105Z,18.36
2023-05-05T07:00:17.750Z,18.30
2023-05-05T07:02:25.254Z,18.38
2023-05-05T07:04:31.577Z,18.41
2023-05-05T07:06:35.043Z,18.42
2023-05-05T07:08:38.491Z,18.59
2023-05-05T07:10:41.975Z,18.78
2023-05-05T07:12:45.502Z,18.83
2023-05-05T07:14:48.871Z,18.89
2023-05-05T07:16:52.307Z,18.79
2023-05-05T07:18:56.130Z,18.83
2023-05-05T07:21:01.343Z,18.91
2023-05-05T07:23:04.665Z,18.92
2023-05-05T07:25:09.206Z,18.73
2023-05-05T07:27:12.576Z,18.99
2023-05-05T07:29:16.265Z,19.02
2023-05-05T07:31:21.886Z,19.03
2023-05-05T07:33:25.406Z,18.98
2023-05-05T07:35:28.974Z,18.92
2023-05-05T07:37:33.847Z,19.11
2023-05-05T07:39:37.346Z,19.15
2023-05-05T07:41:40.814Z,19.24
2023-05-05T07:43:44.760Z,19.30
2023-05-05T07:45:48.361Z,19.27
2023-05-05T07:47:52.011Z,19.29
2023-05-05T07:49:55.415Z,19.35
2023-05-05T07:51:58.875Z,19.34
2023-05-05T07:54:03.663Z,19.28
2023-05-05T07:56:08.755Z,19.29
2023-05-05T07:58:12.223Z,19.27
2023-05-05T08:00:19.271Z,19.50
2023-05-05T08:02:23.112Z,19.57
2023-05-05T08:04:26.502Z,19.59
2023-05-05T08:06:30.246Z,19.68
2023-05-05T08:08:33.594Z,19.82
2023-05-05T08:10:38.362Z,19.77
2023-05-05T08:12:41.759Z,19.68
2023-05-05T08:14:45.381Z,19.71
2023-05-05T08:16:48.905Z,19.63
2023-05-05T08:18:53.371Z,19.78
2023-05-05T08:20:57.203Z,19.85
2023-05-05T08:23:00.871Z,19.83
2023-05-05T08:25:04.715Z,19.73
2023-05-05T08:27:09.626Z,19.86
2023-05-05T08:29:12.955Z,19.96
2023-05-05T08:31:16.918Z,19.91
2023-05-05T08:33:20.346Z,19.99
2023-05-05T08:35:23.863Z,20.12
2023-05-05T08:37:27.294Z,20.18
2023-05-05T08:39:30.759Z,20.19
2023-05-05T08:41:34.362Z,20.26
2023-05-05T08:43:39.637Z,20.32
2023-05-05T08:45:43.116Z,20.24
2023-05-05T08:47:46.760Z,20.18
2023-05-05T08:49:50.553Z,20.01
2023-05-05T08:51:56.129Z,19.94
2023-05-05T08:54:04.144Z,20.13
2023-05-05T08:56:08.893Z,20.18
2023-05-05T08:58:13.859Z,19.72
2023-05-05T09:00:19.788Z,20.03
2023-05-05T09:02:28.360Z,20.27
2023-05-05T09:04:32.487Z,20.15
2023-05-05T09:06:37.120Z,20.17
2023-05-05T09:08:41.133Z,20.61
2023-05-05T09:10:44.642Z,20.67
2023-05-05T09:12:50.105Z,20.80
2023-05-05T09:14:53.470Z,20.79
2023-05-05T09:16:58.284Z,20.87
2023-05-05T09:19:03.238Z,20.79
2023-05-05T09:21:20.694Z,20.90
2023-05-05T09:23:24.118Z,20.92
2023-05-05T09:25:27.577Z,20.67
2023-05-05T09:27:31.139Z,20.66
2023-05-05T09:29:34.555Z,20.72
2023-05-05T09:31:38.157Z,21.00
2023-05-05T09:33:43.145Z,20.90
2023-05-05T09:35:50.786Z,21.26
2023-05-05T09:39:58.711Z,21.51
2023-05-05T09:42:03.688Z,21.55
2023-05-05T09:44:07.506Z,21.53
2023-05-05T09:46:10.901Z,21.68
2023-05-05T09:48:27.365Z,21.24
2023-05-05T09:50:44.400Z,21.79
2023-05-05T09:52:55.590Z,21.89
2023-05-05T09:54:58.994Z,21.98
2023-05-05T09:57:02.407Z,21.96
2023-05-05T09:59:12.136Z,21.95
2023-05-05T10:01:23.763Z,21.92
2023-05-05T10:03:27.287Z,22.09
2023-05-05T10:05:32.072Z,22.32
2023-05-05T10:07:36.211Z,22.50
2023-05-05T10:09:39.616Z,22.58
2023-05-05T10:11:43.517Z,22.69
2023-05-05T10:13:47.104Z,22.77
2023-05-05T10:15:52.032Z,22.86
2023-05-05T10:18:07.067Z,22.69
2023-05-05T10:20:14.290Z,22.37
2023-05-05T10:22:23.610Z,22.42
2023-05-05T10:24:31.754Z,22.55
2023-05-05T10:26:40.034Z,22.51
2023-05-05T10:28:46.939Z,22.42
2023-05-05T10:30:53.980Z,22.33
2023-05-05T10:33:22.846Z,22.35
2023-05-05T10:35:29.478Z,22.37
2023-05-05T10:37:34.788Z,22.40
2023-05-05T10:39:39.444Z,22.37
2023-05-05T10:41:43.917Z,22.22
2023-05-05T10:43:48.393Z,22.06
2023-05-05T10:45:52.066Z,22.02
2023-05-05T10:48:00.218Z,21.70
2023-05-05T10:50:11.161Z,21.30
2023-05-05T10:52:21.847Z,21.44
2023-05-05T10:54:34.669Z,21.48
2023-05-05T10:56:41.846Z,21.39
2023-05-05T10:58:59.140Z,21.33
2023-05-05T11:01:03.582Z,21.31
2023-05-05T11:03:25.657Z,21.20
2023-05-05T11:05:29.086Z,21.15
2023-05-05T11:07:34.301Z,20.72
2023-05-05T11:09:56.040Z,21.11
2023-05-05T11:12:07.306Z,21.09
2023-05-05T11:14:22.922Z,21.14
2023-05-05T11:16:47.359Z,20.96
2023-05-05T11:18:50.819Z,20.54
2023-05-05T11:21:17.188Z,20.80
2023-05-05T11:23:23.765Z,20.88
2023-05-05T11:25:51.454Z,20.61
2023-05-05T11:28:05.878Z,20.43
2023-05-05T11:30:10.743Z,20.07
2023-05-05T11:32:15.660Z,20.08
2023-05-05T11:34:28.733Z,19.82
2023-05-05T11:36:41.849Z,19.80
2023-05-05T11:39:06.037Z,19.60
2023-05-05T11:41:14.768Z,19.29
2023-05-05T11:43:19.930Z,19.26
2023-05-05T11:45:24.571Z,19.09
2023-05-05T11:47:33.429Z,19.05
2023-05-05T11:49:37.908Z,19.06
2023-05-05T11:51:41.402Z,19.08
2023-05-05T11:53:46.025Z,18.93
2023-05-05T11:55:49.409Z,19.07
2023-05-05T11:57:54.143Z,19.14
2023-05-05T12:00:00.141Z,19.21
2023-05-05T12:02:06.002Z,19.05
2023-05-05T12:04:12.582Z,19.02
2023-05-05T12:06:16.075Z,19.00
2023-05-05T12:08:19.688Z,18.92
2023-05-05T12:10:26.063Z,18.84
2023-05-05T12:12:37.065Z,18.73
2023-05-05T12:14:51.590Z,18.71
2023-05-05T12:16:55.878Z,18.85
2023-05-05T12:19:05.645Z,18.97
2023-05-05T12:21:16.641Z,18.94
2023-05-05T12:23:20.557Z,18.91
2023-05-05T12:25:24.262Z,18.77
2023-05-05T12:27:29.017Z,19.01
2023-05-05T12:29:32.464Z,19.12
2023-05-05T12:31:37.938Z,19.30
2023-05-05T12:33:42.000Z,19.41
2023-05-05T12:35:45.464Z,19.45
2023-05-05T12:37:48.846Z,19.54
2023-05-05T12:39:52.501Z,19.28
2023-05-05T12:42:03.496Z,19.28
2023-05-05T12:44:06.884Z,19.18
2023-05-05T12:46:12.261Z,19.15
2023-05-05T12:48:26.357Z,19.46
2023-05-05T12:50:33.069Z,19.39
2023-05-05T12:52:44.000Z,19.54
2023-05-05T12:54:57.495Z,19.59
2023-05-05T12:57:12.406Z,19.68
2023-05-05T12:59:30.625Z,19.38
2023-05-05T13:01:34.587Z,19.55
2023-05-05T13:03:39.477Z,19.69
2023-05-05T13:05:43.076Z,19.70
2023-05-05T13:07:53.577Z,19.64
2023-05-05T13:10:10.415Z,19.57
2023-05-05T13:12:13.839Z,19.35
2023-05-05T13:14:17.168Z,19.58
2023-05-05T13:16:20.698Z,19.75
2023-05-05T13:18:24.353Z,19.83
2023-05-05T13:20:29.273Z,20.00
2023-05-05T13:22:32.662Z,20.09
2023-05-05T13:24:49.914Z,20.31
2023-05-05T13:26:56.463Z,20.52
2023-05-05T13:28:59.811Z,20.55
2023-05-05T13:31:03.203Z,20.39
2023-05-05T13:33:06.505Z,20.35
2023-05-05T13:35:13.205Z,20.48
2023-05-05T13:37:19.506Z,20.55
2023-05-05T13:39:22.975Z,20.53
2023-05-05T13:41:26.415Z,20.64
2023-05-05T13:43:29.945Z,20.04
2023-05-05T13:45:33.491Z,20.32
2023-05-05T13:47:37.206Z,20.43
2023-05-05T13:49:40.513Z,20.47
2023-05-05T13:51:45.122Z,20.37
2023-05-05T13:53:49.960Z,20.05
2023-05-05T13:55:53.358Z,20.04
2023-05-05T13:57:56.818Z,20.12
2023-05-05T14:00:00.179Z,20.08
2023-05-05T14:02:03.508Z,20.12
2023-05-05T14:04:06.920Z,20.20
2023-05-05T14:06:10.329Z,20.16
2023-05-05T14:08:14.371Z,20.41
2023-05-05T14:10:21.719Z,20.38
2023-05-05T14:12:25.067Z,20.28
2023-05-05T14:14:28.420Z,20.28
2023-05-05T14:16:31.760Z,20.27
2023-05-05T14:18:35.185Z,20.27
2023-05-05T14:20:38.625Z,20.27
2023-05-05T14:22:42.171Z,20.23
2023-05-05T14:24:45.481Z,20.26
2023-05-05T14:26:50.212Z,20.32
2023-05-05T14:28:53.505Z,20.29
2023-05-05T14:30:58.029Z,20.29
2023-05-05T14:33:02.204Z,20.28
2023-05-05T14:35:06.548Z,20.26
2023-05-05T14:37:10.072Z,20.24
2023-05-05T14:39:13.356Z,20.24
2023-05-05T14:41:16.785Z,20.26
2023-05-05T14:43:21.867Z,20.25
2023-05-05T14:45:26.304Z,20.24
2023-05-05T14:47:29.746Z,20.24
2023-05-05T14:49:33.306Z,20.19
2023-05-05T14:51:36.854Z,20.01
2023-05-05T14:53:40.618Z,19.55
2023-05-05T14:55:44.510Z,19.56
2023-05-05T14:57:47.840Z,19.18
2023-05-05T14:59:53.084Z,19.00
2023-05-05T15:01:57.120Z,18.86
2023-05-05T15:04:00.590Z,18.77
2023-05-05T15:06:04.736Z,18.62
2023-05-05T15:08:08.048Z,18.42
2023-05-05T15:10:12.065Z,18.16
2023-05-05T15:12:15.506Z,17.54
2023-05-05T15:14:18.854Z,17.53
2023-05-05T15:16:23.624Z,17.44
2023-05-05T15:18:27.017Z,17.11
2023-05-05T15:20:30.721Z,17.03
2023-05-05T15:22:34.251Z,16.97
2023-05-05T15:24:38.231Z,16.97
2023-05-05T15:26:41.649Z,17.00
2023-05-05T15:28:44.977Z,17.05
2023-05-05T15:30:48.358Z,17.11
2023-05-05T15:32:53.102Z,16.96
2023-05-05T15:34:56.561Z,17.14
2023-05-05T15:36:59.873Z,17.19
2023-05-05T15:39:03.293Z,17.17
2023-05-05T15:41:07.715Z,17.17
2023-05-05T15:43:11.012Z,17.17
2023-05-05T15:45:14.953Z,17.21
2023-05-05T15:47:18.867Z,17.07
2023-05-05T15:49:23.902Z,17.29
2023-05-05T15:51:27.359Z,17.20
2023-05-05T15:53:30.768Z,17.27
2023-05-05T15:55:34.185Z,17.18
2023-05-05T15:57:39.637Z,17.21
2023-05-05T15:59:42.952Z,17.38
2023-05-05T16:01:47.612Z,17.43
2023-05-05T16:03:51.095Z,17.48
2023-05-05T16:05:55.836Z,17.50
2023-05-05T16:07:59.159Z,17.42
2023-05-05T16:10:02.545Z,17.66
2023-05-05T16:12:06.500Z,17.62
2023-05-05T16:14:09.794Z,17.93
2023-05-05T16:16:13.095Z,18.06
2023-05-05T16:18:16.434Z,17.95
2023-05-05T16:20:19.941Z,17.91
2023-05-05T16:22:24.640Z,18.15
2023-05-05T16:24:28.118Z,17.97
2023-05-05T16:26:31.496Z,17.87
2023-05-05T16:28:34.790Z,17.79
2023-05-05T16:30:39.748Z,17.82
2023-05-05T16:32:43.459Z,17.82
2023-05-05T16:34:46.833Z,17.98
2023-05-05T16:36:50.178Z,18.09
2023-05-05T16:38:54.930Z,18.28
2023-05-05T16:40:58.286Z,18.18
2023-05-05T16:43:01.715Z,18.08
2023-05-05T16:45:06.780Z,18.04
2023-05-05T16:47:10.890Z,17.95
2023-05-05T16:49:14.323Z,17.90
2023-05-05T16:51:17.738Z,17.91
2023-05-05T16:53:21.018Z,17.94
2023-05-05T16:55:25.863Z,17.88
2023-05-05T16:57:29.309Z,18.06
2023-05-05T16:59:32.614Z,17.96
2023-05-05T17:01:36.131Z,18.11
2023-05-05T17:03:40.181Z,17.94
2023-05-05T17:05:43.588Z,17.86
2023-05-05T17:07:48.229Z,17.83
2023-05-05T17:09:54.460Z,17.85
2023-05-05T17:11:59.255Z,17.72
2023-05-05T17:14:02.708Z,17.58
2023-05-05T17:16:06.441Z,17.51
2023-05-05T17:18:10.168Z,17.50
2023-05-05T17:20:14.063Z,17.43
2023-05-05T17:22:17.504Z,17.36
2023-05-05T17:24:20.992Z,17.40
2023-05-05T17:26:24.312Z,17.37
2023-05-05T17:28:29.068Z,17.30
2023-05-05T17:30:32.518Z,17.29
2023-05-05T17:32:36.178Z,17.35
2023-05-05T17:34:41.006Z,17.38
2023-05-05T17:36:44.425Z,17.45
2023-05-05T17:38:47.926Z,17.46
2023-05-05T17:40:52.166Z,17.42
2023-05-05T17:42:55.542Z,17.46
2023-05-05T17:45:00.587Z,17.25
2023-05-05T17:47:04.022Z,17.48
2023-05-05T17:49:07.576Z,17.53
2023-05-05T17:51:11.137Z,17.57
2023-05-05T17:53:14.471Z,17.60
2023-05-05T17:55:18.039Z,17.64
2023-05-05T17:57:22.698Z,17.67
2023-05-05T17:59:26.254Z,17.69
2023-05-05T18:01:30.996Z,17.58
2023-05-05T18:03:34.535Z,17.45
2023-05-05T18:05:37.943Z,17.44
2023-05-05T18:07:41.347Z,17.51
2023-05-05T18:09:44.736Z,17.29
2023-05-05T18:11:48.524Z,17.49
2023-05-05T18:13:51.849Z,17.40
2023-05-05T18:15:55.189Z,17.36
2023-05-05T18:17:59.926Z,17.33
2023-05-05T18:20:04.137Z,17.25
2023-05-05T18:22:07.436Z,17.19
2023-05-05T18:24:19.405Z,17.19
2023-05-05T18:26:23.591Z,17.21
2023-05-05T18:28:26.850Z,17.22
2023-05-05T18:30:30.384Z,17.19
2023-05-05T18:32:33.919Z,17.08
2023-05-05T18:34:38.737Z,17.08
2023-05-05T18:36:42.091Z,16.75
2023-05-05T18:38:45.513Z,16.68
2023-05-05T18:40:49.094Z,16.41
2023-05-05T18:42:52.408Z,16.56
2023-05-05T18:44:55.784Z,16.67
2023-05-05T18:46:59.904Z,16.72
2023-05-05T18:49:03.526Z,16.68
2023-05-05T18:51:08.455Z,16.56
2023-05-05T18:53:13.621Z,16.55
2023-05-05T18:55:17.139Z,16.49
2023-05-05T18:57:20.543Z,16.36
2023-05-05T18:59:24.074Z,16.36
2023-05-05T19:01:30.132Z,16.33
2023-05-05T19:03:35.587Z,16.27
2023-05-05T19:05:40.578Z,16.20
2023-05-05T19:07:45.426Z,16.16
2023-05-05T19:09:48.858Z,16.23
2023-05-05T19:11:53.007Z,15.71
2023-05-05T19:13:56.634Z,16.26
2023-05-05T19:15:59.995Z,16.45
2023-05-05T19:18:05.518Z,16.64
2023-05-05T19:20:10.206Z,16.95
2023-05-05T19:22:13.576Z,17.24
2023-05-05T19:24:18.292Z,17.44
2023-05-05T19:26:21.760Z,17.56
2023-05-05T19:28:25.145Z,17.62
2023-05-05T19:30:28.622Z,17.54
2023-05-05T19:32:31.991Z,17.50
2023-05-05T19:34:35.502Z,17.47
2023-05-05T19:36:39.283Z,17.43
2023-05-05T19:38:44.442Z,17.41
2023-05-05T19:40:50.170Z,17.39
2023-05-05T19:42:53.488Z,17.38
2023-05-05T19:44:56.833Z,17.39
2023-05-05T19:47:00.253Z,17.27
2023-05-05T19:49:03.777Z,17.24
2023-05-05T19:51:07.206Z,17.12
2023-05-05T19:53:10.720Z,17.24
2023-05-05T19:55:14.060Z,17.24
2023-05-05T19:57:22.212Z,17.24
2023-05-05T19:59:26.012Z,17.23
2023-05-05T20:01:30.130Z,17.21
2023-05-05T20:03:33.576Z,17.15
2023-05-05T20:05:37.962Z,17.10
2023-05-05T20:07:42.086Z,17.07
2023-05-05T20:09:45.440Z,16.95
2023-05-05T20:11:48.726Z,16.91
2023-05-05T20:13:53.619Z,16.79
2023-05-05T20:15:57.032Z,16.91
2023-05-05T20:18:00.462Z,16.78
2023-05-05T20:20:04.004Z,16.89
2023-05-05T20:22:07.477Z,16.86
2023-05-05T20:24:10.781Z,16.80
2023-05-05T20:26:14.290Z,16.65
2023-05-05T20:28:17.640Z,16.57
2023-05-05T20:30:22.719Z,16.43
2023-05-05T20:32:26.088Z,16.49
2023-05-05T20:34:29.577Z,16.32
2023-05-05T20:36:33.010Z,16.18
2023-05-05T20:38:36.372Z,16.17
2023-05-05T20:40:41.401Z,16.24
2023-05-05T20:42:44.770Z,16.31
2023-05-05T20:44:48.101Z,16.36
2023-05-05T20:46:52.893Z,16.40
2023-05-05T20:48:56.319Z,16.20
2023-05-05T20:50:59.756Z,16.17
2023-05-05T20:53:03.294Z,15.84
2023-05-05T20:55:07.628Z,16.33
2023-05-05T20:57:11.472Z,16.41
2023-05-05T20:59:14.870Z,16.21
2023-05-05T21:01:18.518Z,16.16
2023-05-05T21:03:23.236Z,15.92
2023-05-05T21:05:26.957Z,16.17
2023-05-05T21:07:31.301Z,16.09
2023-05-05T21:09:35.765Z,16.01
2023-05-05T21:11:39.192Z,16.05
2023-05-05T21:13:42.599Z,15.56
2023-05-05T21:15:46.090Z,15.99
2023-05-05T21:17:49.730Z,15.99
2023-05-05T21:19:54.923Z,15.95
2023-05-05T21:21:59.271Z,16.00
2023-05-05T21:24:03.834Z,15.98
2023-05-05T21:26:08.920Z,16.05
2023-05-05T21:28:12.270Z,16.07
2023-05-05T21:30:16.602Z,15.81
2023-05-05T21:32:20.488Z,16.14
2023-05-05T21:34:24.059Z,15.95
2023-05-05T21:36:29.066Z,16.16
2023-05-05T21:38:32.445Z,16.17
2023-05-05T21:40:35.974Z,16.02
2023-05-05T21:42:39.403Z,15.96
2023-05-05T21:44:42.803Z,15.80
2023-05-05T21:46:46.333Z,15.10
2023-05-05T21:48:49.960Z,15.80
2023-05-05T21:50:53.621Z,15.81
2023-05-05T21:52:58.396Z,15.81
2023-05-05T21:55:01.991Z,15.72
2023-05-05T21:57:06.308Z,15.75
2023-05-05T21:59:09.759Z,15.82
2023-05-05T22:01:13.227Z,15.86
2023-05-05T22:03:16.895Z,15.90
2023-05-05T22:05:20.596Z,15.95
2023-05-05T22:07:24.868Z,16.00
2023-05-05T22:09:29.688Z,15.98
2023-05-05T22:11:33.045Z,16.03
2023-05-05T22:13:37.498Z,16.00
2023-05-05T22:15:46.662Z,16.02
2023-05-05T22:17:50.949Z,15.93
2023-05-05T22:19:54.287Z,15.95
2023-05-05T22:21:58.554Z,15.98
2023-05-05T22:24:02.239Z,16.01
2023-05-05T22:26:07.042Z,16.00
2023-05-05T22:28:10.329Z,15.98
2023-05-05T22:30:14.767Z,15.85
2023-05-05T22:32:18.091Z,15.79
2023-05-05T22:34:21.870Z,15.66
2023-05-05T22:36:25.918Z,15.60
2023-05-05T22:38:29.344Z,15.57
2023-05-05T22:40:32.852Z,15.54
2023-05-05T22:42:37.710Z,15.54
2023-05-05T22:44:41.079Z,15.59
2023-05-05T22:46:44.452Z,15.68
2023-05-05T22:48:47.940Z,15.52
2023-05-05T22:50:51.561Z,15.72
2023-05-05T22:52:57.938Z,15.74
2023-05-05T22:55:01.340Z,15.70
2023-05-05T22:57:04.866Z,15.61
2023-05-05T22:59:09.571Z,15.65
2023-05-05T23:01:13.548Z,15.63
2023-05-05T23:03:17.082Z,15.65
2023-05-05T23:05:20.517Z,15.69
2023-05-05T23:07:23.979Z,15.72
2023-05-05T23:09:27.357Z,15.73
2023-05-05T23:11:30.748Z,15.70
2023-05-05T23:13:36.984Z,15.62
2023-05-05T23:15:41.922Z,15.61
2023-05-05T23:17:45.426Z,15.68
2023-05-05T23:19:49.238Z,15.67
2023-05-05T23:21:53.813Z,15.74
2023-05-05T23:23:57.322Z,15.74
2023-05-05T23:26:00.702Z,15.72
2023-05-05T23:28:04.175Z,15.61
2023-05-05T23:30:09.147Z,15.56
2023-05-05T23:32:14.039Z,15.57
2023-05-05T23:34:17.550Z,15.53
2023-05-05T23:36:20.973Z,15.50
2023-05-05T23:38:24.382Z,15.44
2023-05-05T23:40:27.913Z,15.47
2023-05-05T23:42:31.270Z,15.48
2023-05-05T23:44:34.884Z,15.52
2023-05-05T23:46:38.329Z,15.54
2023-05-05T23:48:43.301Z,15.57
2023-05-05T23:50:46.666Z,15.56
2023-05-05T23:52:50.089Z,15.41
2023-05-05T23:54:53.377Z,15.27
2023-05-05T23:56:56.848Z,15.22
2023-05-05T23:59:00.188Z,15.07
